Time;durP1;ratioP1;P1;durP2;ratioP2;P2;SDS_P1;SDS_P2;PMS_P1;PMS_P2;Temp;Humidity;BMP_temperature;BMP_pressure;BME280_temperature;BME280_humidity;BME280_pressure;Samples;Min_cycle;Max_cycle;Signal;HPM_P1;HPM_P2
2023/05/05 00:01:15;;;;;;;1.50;0.40;;;;;;;10.06;100.00;100041.42;105255;1253;63878;-46
2023/05/05 00:03:45;;;;;;;2.70;0.40;;;;;;;10.06;100.00;100036.77;105487;1254;74759;-46
2023/05/05 00:06:12;;;;;;;1.80;0.50;;;;;;;10.06;100.00;100034.23;107491;1259;69949;-44
2023/05/05 00:08:40;;;;;;;1.20;0.40;;;;;;;10.07;100.00;100036.89;105348;1254;74987;-47
2023/05/05 00:11:06;;;;;;;1.30;0.50;;;;;;;10.08;100.00;100041.52;106140;1254;60446;-47
2023/05/05 00:13:33;;;;;;;1.60;0.60;;;;;;;10.09;100.00;100039.70;105397;1259;60424;-48
2023/05/05 00:16:00;;;;;;;1.00;0.50;;;;;;;10.10;100.00;100042.88;105394;1254;74691;-43
2023/05/05 00:18:28;;;;;;;2.00;0.50;;;;;;;10.12;100.00;100041.19;105351;1253;68860;-46
2023/05/05 00:20:55;;;;;;;0.90;0.50;;;;;;;10.13;100.00;100044.88;105362;1259;73111;-48
2023/05/05 00:23:21;;;;;;;3.10;0.50;;;;;;;10.14;100.00;100043.94;105351;1257;61080;-50
2023/05/05 00:25:48;;;;;;;0.80;0.50;;;;;;;10.13;100.00;100038.98;105362;1253;62596;-44
2023/05/05 00:28:15;;;;;;;1.10;0.50;;;;;;;10.11;100.00;100039.08;105257;1254;76127;-47
2023/05/05 00:32:33;;;;;;;1.80;0.50;;;;;;;10.08;100.00;100035.08;102149;1297;600397;-48
2023/05/05 00:35:00;;;;;;;2.50;0.40;;;;;;;10.03;100.00;100037.25;104465;1269;59247;-47
2023/05/05 00:37:27;;;;;;;0.60;0.40;;;;;;;10.04;100.00;100040.63;104502;1270;61113;-48
2023/05/05 00:39:54;;;;;;;0.60;0.40;;;;;;;10.04;100.00;100040.05;104558;1267;73394;-46
2023/05/05 00:42:20;;;;;;;1.00;0.50;;;;;;;10.06;100.00;100043.77;104427;1267;67094;-46
2023/05/05 00:44:47;;;;;;;2.60;0.50;;;;;;;10.07;100.00;100045.86;104485;1272;73020;-46
2023/05/05 00:47:15;;;;;;;1.90;0.50;;;;;;;10.09;100.00;100045.95;104601;1267;122254;-48
2023/05/05 00:49:42;;;;;;;0.50;0.40;;;;;;;10.10;100.00;100047.54;105097;1263;59876;-47
2023/05/05 00:52:09;;;;;;;3.00;0.50;;;;;;;10.09;100.00;100051.90;104736;1264;73157;-47
2023/05/05 00:54:35;;;;;;;0.70;0.50;;;;;;;10.08;100.00;100050.13;104668;1267;68503;-47
2023/05/05 00:57:03;;;;;;;6.50;0.50;;;;;;;10.08;100.00;100051.77;104923;1264;74664;-47
2023/05/05 00:59:29;;;;;;;0.90;0.50;;;;;;;10.07;100.00;100047.48;104853;1267;60077;-46
2023/05/05 01:01:56;;;;;;;1.20;0.50;;;;;;;10.04;100.00;100042.38;104881;1266;62622;-47
2023/05/05 01:04:25;;;;;;;1.70;0.60;;;;;;;10.03;100.00;100033.14;104925;1265;75743;-47
2023/05/05 01:07:17;;;;;;;1.00;0.50;;;;;;;10.03;100.00;100032.95;104846;1264;68307;-47
2023/05/05 01:09:58;;;;;;;0.70;0.50;;;;;;;10.01;100.00;100032.30;104895;1267;74965;-49
2023/05/05 01:13:09;;;;;;;0.70;0.50;;;;;;;9.95;100.00;100033.12;108160;1266;64012;-47
2023/05/05 01:15:52;;;;;;;1.00;0.50;;;;;;;9.90;100.00;100039.92;105266;1267;60921;-47
2023/05/05 01:18:29;;;;;;;1.80;0.50;;;;;;;9.90;100.00;100036.00;106340;1263;73995;-48
2023/05/05 01:21:26;;;;;;;0.70;0.40;;;;;;;9.93;100.00;100038.77;104992;1265;68270;-48
2023/05/05 01:24:29;;;;;;;1.90;0.40;;;;;;;9.95;100.00;100035.99;104802;1264;73976;-47
2023/05/05 01:27:15;;;;;;;1.00;0.40;;;;;;;9.94;100.00;100034.05;104825;1266;62232;-48
2023/05/05 01:30:04;;;;;;;1.20;0.40;;;;;;;9.92;100.00;100031.80;104825;1267;61273;-48
2023/05/05 01:32:34;;;;;;;0.90;0.40;;;;;;;9.91;100.00;100029.34;105133;1267;73295;-48
2023/05/05 01:35:06;;;;;;;2.30;0.40;;;;;;;9.88;100.00;100027.27;104863;1261;68104;-48
2023/05/05 01:37:37;;;;;;;0.60;0.50;;;;;;;9.87;100.00;100028.22;104960;1266;75049;-48
2023/05/05 01:40:06;;;;;;;0.40;0.40;;;;;;;9.83;100.00;100037.16;105919;1266;62435;-48
2023/05/05 01:42:34;;;;;;;3.70;0.30;;;;;;;9.77;100.00;100040.29;105782;1264;59603;-48
2023/05/05 01:45:03;;;;;;;3.40;0.40;;;;;;;9.73;100.00;100036.15;104732;1264;72470;-49
2023/05/05 01:47:29;;;;;;;2.30;0.40;;;;;;;9.70;100.00;100035.21;104768;1260;70187;-49
2023/05/05 01:49:56;;;;;;;0.40;0.20;;;;;;;9.64;100.00;100029.36;104854;1263;72826;-46
2023/05/05 01:52:23;;;;;;;2.30;0.40;;;;;;;9.60;100.00;100028.98;104998;1263;63797;-47
2023/05/05 01:54:50;;;;;;;1.30;0.30;;;;;;;9.60;100.00;100033.11;105104;1264;60227;-46
2023/05/05 01:57:16;;;;;;;1.60;0.40;;;;;;;9.61;100.00;100038.05;105061;1264;74905;-47
2023/05/05 01:59:43;;;;;;;2.00;0.30;;;;;;;9.62;100.00;100034.09;105035;1263;66982;-49
2023/05/05 02:02:10;;;;;;;0.90;0.40;;;;;;;9.62;100.00;100037.31;105036;1260;71357;-49
2023/05/05 02:04:40;;;;;;;0.50;0.30;;;;;;;9.62;100.00;100040.55;105716;1260;64230;-46
2023/05/05 02:07:07;;;;;;;2.90;0.40;;;;;;;9.59;100.00;100038.33;105113;1263;61974;-47
2023/05/05 02:09:35;;;;;;;0.70;0.30;;;;;;;9.57;100.00;100037.17;104954;1264;73753;-49
2023/05/05 02:12:02;;;;;;;0.70;0.40;;;;;;;9.53;100.00;100038.20;108594;1257;67185;-48
2023/05/05 02:14:30;;;;;;;1.20;0.50;;;;;;;9.48;100.00;100034.64;108603;1258;72730;-49
2023/05/05 02:16:57;;;;;;;0.50;0.40;;;;;;;9.44;100.00;100036.05;108456;1260;62948;-49
2023/05/05 02:19:28;;;;;;;1.40;0.40;;;;;;;9.42;100.00;100037.23;108708;1257;61630;-49
2023/05/05 02:21:55;;;;;;;1.60;0.40;;;;;;;9.39;100.00;100035.00;108583;1257;71236;-49
2023/05/05 02:24:22;;;;;;;0.50;0.40;;;;;;;9.37;100.00;100035.59;108863;1257;69191;-48
2023/05/05 02:26:49;;;;;;;0.50;0.50;;;;;;;9.37;100.00;100031.85;108694;1257;73517;-47
2023/05/05 02:29:18;;;;;;;0.70;0.40;;;;;;;9.36;100.00;100027.43;108701;1257;64051;-48
2023/05/05 02:31:47;;;;;;;1.00;0.40;;;;;;;9.32;100.00;100032.79;108544;1257;60526;-49
2023/05/05 02:34:15;;;;;;;5.30;0.50;;;;;;;9.29;100.00;100033.60;108599;1257;74838;-47
2023/05/05 02:36:42;;;;;;;0.50;0.30;;;;;;;9.28;100.00;100035.60;107757;1265;69490;-47
2023/05/05 02:39:13;;;;;;;0.80;0.40;;;;;;;9.27;100.00;100034.02;104892;1258;74973;-48
2023/05/05 02:41:40;;;;;;;0.40;0.40;;;;;;;9.29;100.00;100033.06;105031;1262;63961;-49
2023/05/05 02:44:13;;;;;;;0.90;0.40;;;;;;;9.27;100.00;100029.55;104899;1257;60159;-48
2023/05/05 02:46:40;;;;;;;0.70;0.40;;;;;;;9.22;100.00;100030.48;104924;1264;74301;-50
2023/05/05 02:49:06;;;;;;;1.00;0.40;;;;;;;9.20;100.00;100037.52;104765;1264;68706;-49
2023/05/05 02:51:34;;;;;;;0.60;0.50;;;;;;;9.18;100.00;100038.67;104961;1260;71218;-48
2023/05/05 02:54:05;;;;;;;0.60;0.40;;;;;;;9.18;100.00;100040.13;105063;1261;61403;-50
2023/05/05 02:56:40;;;;;;;3.20;0.40;;;;;;;9.17;100.00;100039.81;105126;1257;63156;-48
2023/05/05 02:59:07;;;;;;;1.00;0.60;;;;;;;9.16;100.00;100041.29;105117;1258;72304;-49
2023/05/05 03:01:55;;;;;;;1.10;0.40;;;;;;;9.15;100.00;100038.45;105245;1257;67851;-48
2023/05/05 03:04:28;;;;;;;0.50;0.30;;;;;;;9.16;100.00;100047.55;105192;1260;72166;-47
2023/05/05 03:06:57;;;;;;;1.20;0.40;;;;;;;9.17;100.00;100053.23;105552;1257;62159;-49
2023/05/05 03:09:32;;;;;;;0.90;0.50;;;;;;;9.18;100.00;100046.95;105551;1254;60921;-48
2023/05/05 03:12:03;;;;;;;0.60;0.30;;;;;;;9.18;100.00;100047.65;105464;1257;75138;-48
2023/05/05 03:14:40;;;;;;;0.60;0.40;;;;;;;9.17;100.00;100054.51;105445;1259;70170;-49
2023/05/05 03:17:09;;;;;;;3.20;0.50;;;;;;;9.15;100.00;100049.91;105716;1260;72524;-49
2023/05/05 03:19:39;;;;;;;3.50;0.50;;;;;;;9.16;100.00;100052.75;105374;1260;62987;-50
2023/05/05 03:22:05;;;;;;;1.00;0.50;;;;;;;9.20;100.00;100050.80;105615;1254;60252;-51
2023/05/05 03:24:33;;;;;;;1.10;0.50;;;;;;;9.21;100.00;100049.48;105484;1254;75671;-49
2023/05/05 03:27:03;;;;;;;0.80;0.50;;;;;;;9.22;100.00;100050.52;105453;1254;69341;-50
2023/05/05 03:29:33;;;;;;;2.90;0.50;;;;;;;9.22;100.00;100047.85;105381;1254;71411;-51
2023/05/05 03:32:01;;;;;;;0.60;0.40;;;;;;;9.19;100.00;100047.23;106020;1254;64582;-49
2023/05/05 03:34:28;;;;;;;0.60;0.40;;;;;;;9.18;100.00;100049.29;105454;1259;61143;-49
2023/05/05 03:36:56;;;;;;;0.60;0.40;;;;;;;9.17;100.00;100046.96;105587;1260;73245;-51
2023/05/05 03:39:23;;;;;;;1.10;0.70;;;;;;;9.17;100.00;100042.86;105788;1255;68380;-48
2023/05/05 03:41:49;;;;;;;1.00;0.50;;;;;;;9.15;100.00;100043.64;105525;1254;73827;-49
2023/05/05 03:44:18;;;;;;;2.70;0.50;;;;;;;9.17;100.00;100044.83;106071;1259;62971;-49
2023/05/05 03:46:45;;;;;;;2.50;0.50;;;;;;;9.19;100.00;100047.21;105451;1254;61690;-49
2023/05/05 03:49:12;;;;;;;0.60;0.50;;;;;;;9.21;100.00;100049.33;105477;1257;74986;-50
2023/05/05 03:51:40;;;;;;;0.40;0.40;;;;;;;9.21;100.00;100048.42;106363;1259;68920;-50
2023/05/05 03:54:07;;;;;;;0.80;0.40;;;;;;;9.22;100.00;100044.26;105309;1260;74958;-49
2023/05/05 03:56:34;;;;;;;1.40;0.50;;;;;;;9.25;100.00;100049.35;105335;1254;63924;-46
2023/05/05 03:59:01;;;;;;;0.50;0.50;;;;;;;9.28;100.00;100052.96;105387;1254;61173;-48
2023/05/05 04:01:30;;;;;;;2.00;0.40;;;;;;;9.33;100.00;100046.34;105388;1254;70913;-48
2023/05/05 04:03:57;;;;;;;1.90;0.40;;;;;;;9.39;100.00;100040.56;106302;1254;70149;-48
2023/05/05 04:06:25;;;;;;;0.90;0.50;;;;;;;9.43;100.00;100035.40;105691;1260;75002;-49
2023/05/05 04:08:52;;;;;;;1.00;0.50;;;;;;;9.43;100.00;100032.14;106091;1256;61637;-50
2023/05/05 04:11:20;;;;;;;1.50;0.50;;;;;;;9.44;100.00;100040.04;106152;1254;62661;-49
2023/05/05 04:13:48;;;;;;;0.70;0.50;;;;;;;9.45;100.00;100055.37;106249;1253;73056;-50
2023/05/05 04:16:16;;;;;;;1.00;0.50;;;;;;;9.48;100.00;100060.98;105776;1254;67237;-49
2023/05/05 04:18:43;;;;;;;0.80;0.80;;;;;;;9.50;100.00;100065.20;105356;1257;73038;-50
2023/05/05 04:21:09;;;;;;;1.50;0.50;;;;;;;9.55;100.00;100067.36;105264;1257;60280;-48
2023/05/05 04:23:36;;;;;;;1.50;0.70;;;;;;;9.59;100.00;100070.21;105392;1254;60412;-48
2023/05/05 04:26:04;;;;;;;1.10;0.60;;;;;;;9.61;100.00;100068.19;105767;1254;73587;-48
2023/05/05 04:28:30;;;;;;;0.80;0.50;;;;;;;9.56;100.00;100071.42;105328;1254;70503;-48
2023/05/05 04:30:59;;;;;;;1.30;0.70;;;;;;;9.50;100.00;100071.66;105193;1260;75412;-47
2023/05/05 04:33:28;;;;;;;0.50;0.50;;;;;;;9.45;100.00;100073.98;106177;1254;63761;-48
2023/05/05 04:35:56;;;;;;;1.60;0.50;;;;;;;9.42;100.00;100081.44;104819;1254;62240;-49
2023/05/05 04:38:23;;;;;;;0.80;0.40;;;;;;;9.40;100.00;100082.41;104988;1261;75117;-48
2023/05/05 04:40:50;;;;;;;0.80;0.60;;;;;;;9.37;100.00;100084.15;105685;1256;66283;-48
2023/05/05 04:43:16;;;;;;;1.10;0.50;;;;;;;9.31;100.00;100086.73;108763;1255;74764;-50
2023/05/05 04:45:53;;;;;;;0.70;0.50;;;;;;;9.26;100.00;100086.74;106170;1254;62338;-49
2023/05/05 04:48:22;;;;;;;0.50;0.40;;;;;;;9.23;100.00;100086.86;104681;1254;60315;-49
2023/05/05 04:50:50;;;;;;;0.70;0.50;;;;;;;9.20;100.00;100083.73;105065;1257;75709;-48
2023/05/05 04:53:17;;;;;;;0.60;0.50;;;;;;;9.20;100.00;100082.45;105215;1254;67074;-49
2023/05/05 04:55:44;;;;;;;0.70;0.40;;;;;;;9.22;100.00;100085.98;109015;1254;74454;-49
2023/05/05 04:58:12;;;;;;;1.40;0.70;;;;;;;9.27;100.00;100090.45;105419;1254;64296;-48
2023/05/05 05:00:38;;;;;;;1.20;0.50;;;;;;;9.31;100.00;100093.52;104596;1256;60712;-48
2023/05/05 05:03:06;;;;;;;1.00;0.40;;;;;;;9.37;100.00;100095.44;104979;1260;73860;-48
2023/05/05 05:05:33;;;;;;;2.60;0.40;;;;;;;9.40;100.00;100097.46;105262;1254;68892;-47
2023/05/05 05:08:00;;;;;;;0.50;0.40;;;;;;;9.44;100.00;100104.84;105203;1254;74948;-46
2023/05/05 05:10:27;;;;;;;0.80;0.50;;;;;;;9.47;100.00;100108.48;105179;1254;64284;-48
2023/05/05 05:12:54;;;;;;;1.90;0.50;;;;;;;9.49;100.00;100107.33;105174;1260;61505;-48
2023/05/05 05:15:21;;;;;;;0.70;0.30;;;;;;;9.50;100.00;100103.38;108994;1254;73777;-47
2023/05/05 05:17:48;;;;;;;0.70;0.50;;;;;;;9.52;100.00;100102.77;106275;1255;66842;-47
2023/05/05 05:20:15;;;;;;;0.90;0.40;;;;;;;9.54;100.00;100100.17;105262;1254;73369;-47
2023/05/05 05:22:41;;;;;;;2.00;0.50;;;;;;;9.56;100.00;100102.77;105212;1254;62790;-46
2023/05/05 05:25:11;;;;;;;0.70;0.40;;;;;;;9.59;100.00;100098.90;106406;1258;62729;-46
2023/05/05 05:27:38;;;;;;;0.70;0.40;;;;;;;9.61;100.00;100094.68;105068;1260;75896;-47
2023/05/05 05:30:06;;;;;;;1.10;0.40;;;;;;;9.66;100.00;100088.41;106064;1254;70043;-47
2023/05/05 05:32:34;;;;;;;1.50;0.40;;;;;;;9.73;100.00;100091.86;104838;1254;73915;-46
2023/05/05 05:35:12;;;;;;;0.80;0.30;;;;;;;9.82;100.00;100096.89;106786;1253;61359;-48
2023/05/05 05:37:39;;;;;;;0.60;0.30;;;;;;;9.85;100.00;100098.20;104673;1257;60537;-48
2023/05/05 05:40:07;;;;;;;0.40;0.40;;;;;;;9.91;100.00;100101.38;104973;1259;75444;-49
2023/05/05 05:42:35;;;;;;;1.40;0.40;;;;;;;9.97;100.00;100105.61;105712;1259;68177;-47
2023/05/05 05:45:03;;;;;;;1.30;0.30;;;;;;;9.98;100.00;100107.75;105380;1254;75000;-43
2023/05/05 05:47:29;;;;;;;0.70;0.40;;;;;;;9.98;100.00;100108.65;106104;1255;63289;-48
2023/05/05 05:49:56;;;;;;;0.50;0.30;;;;;;;9.96;100.00;100110.69;105467;1257;61094;-49
2023/05/05 05:52:23;;;;;;;0.50;0.30;;;;;;;9.93;100.00;100102.23;105342;1254;73866;-46
2023/05/05 05:54:50;;;;;;;0.80;0.40;;;;;;;9.94;100.00;100104.52;105381;1259;67482;-49
2023/05/05 05:57:17;;;;;;;0.30;0.30;;;;;;;9.96;100.00;100104.80;105400;1257;74602;-47
2023/05/05 05:59:44;;;;;;;0.40;0.30;;;;;;;9.98;100.00;100099.30;106122;1254;63221;-47
2023/05/05 06:02:11;;;;;;;0.40;0.20;;;;;;;10.06;100.00;100093.60;105408;1254;61508;-48
2023/05/05 06:04:38;;;;;;;0.30;0.20;;;;;;;10.17;100.00;100095.85;105128;1261;74701;-47
2023/05/05 06:07:05;;;;;;;1.40;0.30;;;;;;;10.29;100.00;100095.02;105007;1254;67251;-47
2023/05/05 06:09:32;;;;;;;1.10;0.40;;;;;;;10.40;100.00;100094.36;105417;1259;74757;-50
2023/05/05 06:11:59;;;;;;;0.70;0.30;;;;;;;10.50;100.00;100087.48;105022;1254;61360;-47
2023/05/05 06:14:25;;;;;;;0.50;0.30;;;;;;;10.60;100.00;100092.25;105179;1259;60885;-48
2023/05/05 06:16:52;;;;;;;2.50;0.30;;;;;;;10.69;100.00;100091.33;104925;1260;73861;-46
2023/05/05 06:19:20;;;;;;;0.40;0.20;;;;;;;10.72;100.00;100088.31;106450;1254;69848;-49
2023/05/05 06:21:47;;;;;;;0.20;0.20;;;;;;;10.74;100.00;100083.91;105092;1254;72930;-48
2023/05/05 06:24:14;;;;;;;0.50;0.20;;;;;;;10.73;100.00;100083.95;104872;1254;60559;-46
2023/05/05 06:26:41;;;;;;;0.50;0.30;;;;;;;10.70;100.00;100088.96;104819;1254;62251;-45
2023/05/05 06:29:07;;;;;;;0.50;0.20;;;;;;;10.65;100.00;100084.85;104743;1254;74339;-45
2023/05/05 06:31:37;;;;;;;0.40;0.30;;;;;;;10.63;100.00;100087.48;105274;1254;69212;-48
2023/05/05 06:34:04;;;;;;;2.00;0.20;;;;;;;10.66;100.00;100094.52;106468;1257;72725;-48
2023/05/05 06:36:31;;;;;;;2.10;0.30;;;;;;;10.67;100.00;100095.20;105381;1254;62245;-47
2023/05/05 06:38:58;;;;;;;0.40;0.30;;;;;;;10.65;100.00;100093.83;105421;1254;62417;-50
2023/05/05 06:41:25;;;;;;;0.30;0.20;;;;;;;10.66;100.00;100089.69;105422;1257;72796;-47
2023/05/05 06:43:52;;;;;;;0.40;0.20;;;;;;;10.70;100.00;100083.20;105436;1259;68419;-47
2023/05/05 06:46:19;;;;;;;0.50;0.30;;;;;;;10.76;100.00;100077.91;105328;1259;76015;-48
2023/05/05 06:48:45;;;;;;;0.30;0.30;;;;;;;10.87;100.00;100075.61;105397;1254;60669;-48
2023/05/05 06:51:12;;;;;;;0.40;0.30;;;;;;;10.97;100.00;100073.90;105306;1259;60332;-46
2023/05/05 06:53:39;;;;;;;2.00;0.30;;;;;;;11.06;100.00;100069.92;105425;1256;74030;-48
2023/05/05 06:56:05;;;;;;;1.10;0.30;;;;;;;11.13;100.00;100067.08;105401;1257;67055;-47
2023/05/05 06:58:32;;;;;;;0.30;0.30;;;;;;;11.21;100.00;100066.91;105378;1259;72157;-46
2023/05/05 07:00:59;;;;;;;0.90;0.50;;;;;;;11.28;100.00;100067.67;105463;1254;60787;-48
2023/05/05 07:03:26;;;;;;;0.40;0.20;;;;;;;11.31;100.00;100067.33;105404;1254;61526;-49
2023/05/05 07:05:53;;;;;;;1.20;0.40;;;;;;;11.36;100.00;100067.29;105736;1257;75698;-49
2023/05/05 07:08:20;;;;;;;0.50;0.30;;;;;;;11.44;100.00;100063.70;105348;1260;67875;-48
2023/05/05 07:10:47;;;;;;;0.90;0.30;;;;;;;11.56;100.00;100062.95;105355;1258;72775;-46
2023/05/05 07:13:14;;;;;;;0.50;0.30;;;;;;;11.69;100.00;100061.23;105353;1256;61463;-49
2023/05/05 07:15:45;;;;;;;0.40;0.20;;;;;;;11.81;100.00;100056.58;107636;1257;60651;-47
2023/05/05 07:18:13;;;;;;;5.20;0.40;;;;;;;11.87;100.00;100060.39;105758;1256;73784;-48
2023/05/05 07:20:39;;;;;;;0.40;0.20;;;;;;;11.89;100.00;100060.82;105325;1254;68650;-47
2023/05/05 07:23:06;;;;;;;1.10;0.20;;;;;;;11.86;100.00;100064.95;105680;1254;71908;-46
2023/05/05 07:25:33;;;;;;;0.40;0.20;;;;;;;11.85;100.00;100066.42;105304;1257;60597;-49
2023/05/05 07:28:00;;;;;;;1.10;0.20;;;;;;;11.85;100.00;100067.52;105237;1256;60885;-48
2023/05/05 07:30:26;;;;;;;2.00;0.30;;;;;;;11.85;100.00;100065.85;105352;1253;72825;-49
2023/05/05 07:32:53;;;;;;;0.70;0.30;;;;;;;11.92;100.00;100061.24;105381;1254;67393;-47
2023/05/05 07:35:21;;;;;;;0.30;0.20;;;;;;;11.98;100.00;100060.37;105300;1253;72373;-47
2023/05/05 07:37:48;;;;;;;1.20;0.40;;;;;;;12.08;100.00;100058.62;105288;1258;62438;-47
2023/05/05 07:40:15;;;;;;;0.30;0.20;;;;;;;12.19;100.00;100057.55;105343;1254;62681;-48
2023/05/05 07:42:42;;;;;;;0.40;0.30;;;;;;;12.29;100.00;100057.59;105265;1255;75022;-47
2023/05/05 07:45:10;;;;;;;2.00;0.30;;;;;;;12.37;100.00;100055.55;105410;1254;67347;-48
2023/05/05 07:47:36;;;;;;;0.50;0.30;;;;;;;12.44;100.00;100053.34;109072;1254;73598;-48
2023/05/05 07:50:04;;;;;;;1.50;0.20;;;;;;;12.50;100.00;100048.89;107020;1258;62598;-47
2023/05/05 07:52:31;;;;;;;0.50;0.30;;;;;;;12.55;100.00;100044.90;109084;1253;62031;-49
2023/05/05 07:55:13;;;;;;;2.10;0.20;;;;;;;12.61;100.00;100044.95;109073;1256;72497;-50
2023/05/05 07:57:40;;;;;;;2.30;0.30;;;;;;;12.65;100.00;100043.12;109027;1254;70412;-51
2023/05/05 08:00:08;;;;;;;1.40;0.40;;;;;;;12.69;100.00;100042.37;108986;1254;70596;-50
2023/05/05 08:02:38;;;;;;;0.60;0.30;;;;;;;12.73;100.00;100038.20;107488;1257;60457;-48
2023/05/05 08:05:06;;;;;;;0.20;0.20;;;;;;;12.78;100.00;100031.58;105319;1257;63710;-48
2023/05/05 08:07:35;;;;;;;2.20;0.30;;;;;;;12.88;100.00;100033.42;109040;1254;73512;-48
2023/05/05 08:10:02;;;;;;;0.40;0.30;;;;;;;12.95;100.00;100030.52;108777;1254;67258;-49
2023/05/05 08:12:28;;;;;;;1.50;0.30;;;;;;;12.97;100.00;100028.63;105272;1260;74157;-47
2023/05/05 08:14:55;;;;;;;0.60;0.30;;;;;;;13.04;100.00;100028.95;105329;1254;60438;-48
2023/05/05 08:17:24;;;;;;;0.80;0.30;;;;;;;13.13;100.00;100031.01;105350;1254;62816;-48
2023/05/05 08:19:51;;;;;;;0.30;0.30;;;;;;;13.19;100.00;100025.41;108858;1254;75764;-48
2023/05/05 08:22:19;;;;;;;1.50;0.20;;;;;;;13.27;100.00;100025.71;108981;1256;68478;-50
2023/05/05 08:24:46;;;;;;;0.50;0.30;;;;;;;13.37;100.00;100021.57;105668;1254;73790;-46
2023/05/05 08:27:13;;;;;;;1.50;0.30;;;;;;;13.48;100.00;100022.06;104660;1256;61659;-47
2023/05/05 08:29:40;;;;;;;0.30;0.30;;;;;;;13.56;100.00;100026.28;104857;1259;60421;-48
2023/05/05 08:32:06;;;;;;;0.50;0.30;;;;;;;13.62;100.00;100030.95;104710;1259;74085;-49
2023/05/05 08:34:33;;;;;;;1.40;0.30;;;;;;;13.67;100.00;100034.89;104847;1257;66281;-49
2023/05/05 08:37:00;;;;;;;0.70;0.40;;;;;;;13.63;100.00;100034.70;104882;1254;74994;-48
2023/05/05 08:39:27;;;;;;;0.50;0.30;;;;;;;13.60;100.00;100032.36;104865;1254;60571;-47
2023/05/05 08:41:53;;;;;;;0.60;0.30;;;;;;;13.65;100.00;100030.45;104781;1255;60363;-49
2023/05/05 08:44:20;;;;;;;1.80;0.30;;;;;;;13.70;100.00;100032.90;105285;1254;74027;-48
2023/05/05 08:46:48;;;;;;;1.00;0.30;;;;;;;13.76;100.00;100026.27;105404;1259;69854;-47
2023/05/05 08:49:15;;;;;;;0.50;0.30;;;;;;;13.85;100.00;100023.38;105792;1254;73396;-49
2023/05/05 08:51:43;;;;;;;2.40;0.30;;;;;;;13.89;100.00;100018.96;106957;1254;61557;-48
2023/05/05 08:54:14;;;;;;;0.80;0.20;;;;;;;13.92;100.00;100018.98;105547;1259;60536;-48
2023/05/05 08:56:40;;;;;;;0.60;0.40;;;;;;;14.02;100.00;100019.31;105769;1254;72822;-49
2023/05/05 08:59:08;;;;;;;1.60;0.40;;;;;;;14.11;100.00;100021.17;105352;1254;68893;-49
2023/05/05 09:01:35;;;;;;;0.40;0.30;;;;;;;14.13;100.00;100013.83;106556;1257;75663;-48
2023/05/05 09:04:06;;;;;;;0.90;0.20;;;;;;;14.17;100.00;100013.58;105424;1256;60368;-47
2023/05/05 09:06:34;;;;;;;1.10;0.30;;;;;;;14.16;100.00;100012.55;105379;1254;61853;-48
2023/05/05 09:09:01;;;;;;;1.20;0.30;;;;;;;14.15;100.00;100019.46;108773;1254;77400;-49
2023/05/05 09:11:28;;;;;;;0.80;0.30;;;;;;;14.20;100.00;100018.82;105382;1254;66790;-49
2023/05/05 09:13:55;;;;;;;0.60;0.30;;;;;;;14.26;100.00;100020.61;104977;1257;75106;-49
2023/05/05 09:16:22;;;;;;;1.30;0.30;;;;;;;14.33;100.00;100014.55;105042;1254;61083;-47
2023/05/05 09:18:49;;;;;;;2.50;0.40;;;;;;;14.44;100.00;100017.80;105185;1254;60927;-48
2023/05/05 09:21:20;;;;;;;5.20;0.40;;;;;;;14.48;100.00;100014.64;105335;1258;76020;-47
2023/05/05 09:24:03;;;;;;;0.60;0.30;;;;;;;14.45;100.00;100020.08;104988;1254;70235;-48
2023/05/05 09:26:36;;;;;;;0.20;0.20;;;;;;;14.45;100.00;100014.29;104765;1257;75257;-48
2023/05/05 09:29:03;;;;;;;1.60;0.30;;;;;;;14.51;100.00;100012.64;105409;1254;61145;-46
2023/05/05 09:31:30;;;;;;;0.50;0.30;;;;;;;14.59;100.00;100009.95;105432;1254;60590;-49
2023/05/05 09:33:59;;;;;;;2.70;0.30;;;;;;;14.66;100.00;99999.44;105855;1257;73828;-49
2023/05/05 09:36:42;;;;;;;1.60;0.30;;;;;;;14.72;100.00;99994.39;105492;1259;66970;-48
2023/05/05 09:39:10;;;;;;;1.50;0.20;;;;;;;14.83;100.00;99993.88;106568;1255;71759;-48
2023/05/05 09:41:41;;;;;;;3.50;0.40;;;;;;;14.91;100.00;99990.84;106436;1254;60506;-46
2023/05/05 09:44:07;;;;;;;0.60;0.40;;;;;;;14.97;100.00;99994.75;105955;1254;60504;-49
2023/05/05 09:46:34;;;;;;;0.50;0.30;;;;;;;14.96;100.00;99986.95;105390;1254;74705;-48
2023/05/05 09:49:22;;;;;;;1.20;0.30;;;;;;;14.96;100.00;99984.41;105867;1254;68389;-46
2023/05/05 09:51:48;;;;;;;3.30;0.40;;;;;;;14.98;100.00;99981.14;105485;1254;72631;-46
2023/05/05 09:54:25;;;;;;;0.50;0.30;;;;;;;14.96;100.00;99989.46;105432;1253;60351;-47
2023/05/05 09:56:52;;;;;;;2.30;0.70;;;;;;;14.95;100.00;99989.15;105398;1259;60353;-48
2023/05/05 09:59:19;;;;;;;0.40;0.40;;;;;;;14.93;100.00;99988.35;105540;1254;74095;-48
2023/05/05 10:01:47;;;;;;;1.10;0.30;;;;;;;14.87;100.00;99986.03;105829;1254;68022;-49
2023/05/05 10:04:28;;;;;;;0.50;0.30;;;;;;;14.90;100.00;99982.77;105338;1257;75093;-48
2023/05/05 10:06:55;;;;;;;0.50;0.40;;;;;;;15.01;100.00;99986.44;105885;1259;60505;-48
2023/05/05 10:09:25;;;;;;;0.50;0.40;;;;;;;15.09;100.00;99987.70;105886;1257;60466;-49
2023/05/05 10:11:52;;;;;;;0.40;0.30;;;;;;;15.14;100.00;99981.75;105363;1254;75053;-49
2023/05/05 10:14:19;;;;;;;1.40;0.30;;;;;;;15.19;100.00;99977.34;105480;1259;70058;-48
2023/05/05 10:16:50;;;;;;;0.50;0.30;;;;;;;15.26;100.00;99970.17;105342;1257;71701;-46
2023/05/05 10:19:19;;;;;;;1.10;0.30;;;;;;;15.37;100.00;99966.52;105439;1254;60757;-52
2023/05/05 10:21:55;;;;;;;0.50;0.30;;;;;;;15.45;100.00;99968.38;105950;1258;61467;-50
2023/05/05 10:24:28;;;;;;;0.30;0.20;;;;;;;15.45;100.00;99959.92;105042;1255;73971;-48
2023/05/05 10:26:57;;;;;;;4.20;0.40;;;;;;;15.39;100.00;99960.12;104705;1254;68740;-49
2023/05/05 10:29:49;;;;;;;0.40;0.30;;;;;;;15.32;100.00;99960.91;105336;1257;72859;-50
2023/05/05 10:32:29;;;;;;;2.70;0.30;;;;;;;15.22;100.00;99957.80;108919;1258;61571;-51
2023/05/05 10:35:02;;;;;;;0.30;0.30;;;;;;;15.17;100.00;99961.16;109039;1254;62417;-52
2023/05/05 10:37:29;;;;;;;0.40;0.30;;;;;;;15.18;100.00;99959.49;108840;1254;74184;-51
2023/05/05 10:39:58;;;;;;;2.10;0.30;;;;;;;15.20;100.00;99958.64;108857;1256;69900;-51
2023/05/05 10:42:26;;;;;;;0.20;0.20;;;;;;;15.23;100.00;99955.88;105938;1254;72838;-49
2023/05/05 10:44:53;;;;;;;0.30;0.20;;;;;;;15.28;100.00;99951.42;105258;1254;62810;-50
2023/05/05 10:47:20;;;;;;;1.40;0.20;;;;;;;15.32;100.00;99953.84;104986;1254;62818;-49
2023/05/05 10:49:54;;;;;;;0.40;0.30;;;;;;;15.33;100.00;99946.39;104532;1254;76270;-51
2023/05/05 10:52:33;;;;;;;0.80;0.20;;;;;;;15.39;100.00;99942.77;108809;1259;67964;-52
2023/05/05 10:55:11;;;;;;;1.90;0.30;;;;;;;15.43;100.00;99941.60;108754;1254;74738;-50
2023/05/05 10:57:40;;;;;;;0.30;0.30;;;;;;;15.46;100.00;99940.48;108876;1260;61239;-49
2023/05/05 11:00:07;;;;;;;1.00;0.40;;;;;;;15.43;100.00;99935.08;108940;1254;60685;-50
2023/05/05 11:02:34;;;;;;;1.30;0.30;;;;;;;15.41;100.00;99940.77;109040;1254;73513;-50
2023/05/05 11:05:05;;;;;;;2.50;0.30;;;;;;;15.42;100.00;99937.33;108824;1254;67633;-50
2023/05/05 11:07:33;;;;;;;1.60;0.40;;;;;;;15.43;100.00;99935.60;109097;1254;74920;-51
2023/05/05 11:10:01;;;;;;;1.20;0.30;;;;;;;15.45;100.00;99941.64;109022;1256;62012;-50
2023/05/05 11:12:28;;;;;;;1.70;0.30;;;;;;;15.43;100.00;99938.66;108999;1254;61149;-50
2023/05/05 11:15:26;;;;;;;0.40;0.30;;;;;;;15.41;100.00;99939.36;108857;1254;75907;-50
2023/05/05 11:17:54;;;;;;;2.00;0.20;;;;;;;15.42;100.00;99941.83;105199;1254;67190;-50
2023/05/05 11:20:38;;;;;;;0.50;0.30;;;;;;;15.44;100.00;99937.88;105217;1254;72964;-49
2023/05/05 11:23:05;;;;;;;3.70;0.60;;;;;;;15.45;100.00;99942.55;105893;1259;61449;-49
2023/05/05 11:25:33;;;;;;;0.90;0.30;;;;;;;15.45;100.00;99939.98;105237;1257;61204;-50